createdAt,value
2018-03-08T00:00:48.590Z,39.44
2018-03-08T00:01:49.067Z,39.40
2018-03-08T00:02:49.527Z,39.38
2018-03-08T00:03:49.992Z,39.32
2018-03-08T00:04:50.462Z,39.25
2018-03-08T00:05:50.929Z,39.21
2018-03-08T00:06:51.396Z,39.21
2018-03-08T00:07:51.863Z,39.20
2018-03-08T00:08:52.332Z,39.23
2018-03-08T00:09:52.802Z,39.20
2018-03-08T00:10:53.266Z,39.20
2018-03-08T00:11:53.735Z,39.18
2018-03-08T00:12:54.201Z,39.16
2018-03-08T00:13:54.668Z,39.14
2018-03-08T00:14:55.138Z,39.13
2018-03-08T00:15:55.607Z,39.13
2018-03-08T00:16:56.074Z,39.11
2018-03-08T00:17:56.541Z,39.10
2018-03-08T00:18:57.211Z,39.12
2018-03-08T00:19:57.475Z,39.12
2018-03-08T00:20:57.945Z,39.12
2018-03-08T00:21:58.414Z,39.12
2018-03-08T00:22:58.880Z,39.13
2018-03-08T00:23:59.346Z,39.11
2018-03-08T00:24:59.816Z,39.08
2018-03-08T00:26:00.286Z,39.05
2018-03-08T00:27:00.751Z,39.06
2018-03-08T00:28:01.218Z,39.03
2018-03-08T00:29:01.687Z,39.02
2018-03-08T00:30:02.155Z,38.96
2018-03-08T00:31:02.620Z,38.90
2018-03-08T00:32:03.089Z,38.89
2018-03-08T00:33:03.556Z,38.89
2018-03-08T00:34:04.229Z,38.90
2018-03-08T00:35:04.494Z,38.87
2018-03-08T00:36:04.960Z,38.83
2018-03-08T00:37:05.428Z,38.80
2018-03-08T00:38:05.895Z,38.85
2018-03-08T00:39:06.374Z,38.84
2018-03-08T00:40:06.835Z,38.90
2018-03-08T00:41:07.298Z,38.85
2018-03-08T00:42:07.767Z,38.89
2018-03-08T00:43:08.236Z,39.01
2018-03-08T00:44:08.699Z,39.11
2018-03-08T00:45:09.169Z,39.16
2018-03-08T00:46:09.637Z,39.20
2018-03-08T00:47:10.106Z,39.29
2018-03-08T00:48:10.571Z,39.35
2018-03-08T00:49:11.040Z,39.42
2018-03-08T00:50:11.506Z,39.51
2018-03-08T00:51:11.975Z,39.50
2018-03-08T00:52:12.442Z,39.53
2018-03-08T00:53:12.908Z,39.53
2018-03-08T00:54:13.379Z,39.55
2018-03-08T00:55:13.844Z,39.52
2018-03-08T00:56:14.310Z,39.54
2018-03-08T00:57:14.782Z,39.45
2018-03-08T00:58:15.247Z,39.48
2018-03-08T00:59:15.713Z,39.48
2018-03-08T01:00:16.181Z,39.45
2018-03-08T01:01:16.649Z,39.45
2018-03-08T01:02:17.116Z,39.47
2018-03-08T01:03:17.587Z,39.42
2018-03-08T01:04:18.051Z,39.38
2018-03-08T01:05:18.518Z,39.38
2018-03-08T01:06:18.986Z,39.33
2018-03-08T01:07:19.452Z,39.29
2018-03-08T01:08:19.920Z,39.29
2018-03-08T01:09:20.416Z,39.29
2018-03-08T01:10:20.856Z,39.35
2018-03-08T01:11:21.398Z,39.39
2018-03-08T01:12:21.789Z,39.48
2018-03-08T01:13:22.259Z,39.45
2018-03-08T01:14:22.774Z,39.43
2018-03-08T01:15:23.193Z,39.47
2018-03-08T01:16:23.659Z,39.46
2018-03-08T01:17:24.128Z,39.44
2018-03-08T01:18:24.596Z,39.39
2018-03-08T01:19:25.062Z,39.35
2018-03-08T01:20:25.528Z,39.34
2018-03-08T01:21:25.994Z,39.39
2018-03-08T01:22:26.466Z,39.35
2018-03-08T01:23:26.932Z,39.33
2018-03-08T01:24:27.399Z,39.31
2018-03-08T01:25:27.865Z,39.27
2018-03-08T01:26:28.333Z,39.25
2018-03-08T01:27:28.801Z,39.26
2018-03-08T01:28:29.268Z,39.24
2018-03-08T01:29:29.786Z,39.17
2018-03-08T01:30:30.202Z,39.18
2018-03-08T01:31:30.667Z,39.20
2018-03-08T01:32:31.137Z,39.17
2018-03-08T01:33:31.603Z,39.16
2018-03-08T01:34:32.222Z,39.16
2018-03-08T01:35:32.539Z,39.09
2018-03-08T01:36:33.004Z,39.06
2018-03-08T01:37:33.470Z,39.09
2018-03-08T01:38:33.939Z,39.06
2018-03-08T01:39:34.413Z,39.03
2018-03-08T01:40:34.876Z,39.02
2018-03-08T01:41:35.340Z,38.97
2018-03-08T01:42:35.811Z,38.98
2018-03-08T01:43:36.276Z,38.96
2018-03-08T01:44:36.792Z,38.93
2018-03-08T01:45:37.213Z,38.93
2018-03-08T01:46:37.677Z,38.94
2018-03-08T01:47:38.144Z,38.95
2018-03-08T01:48:38.612Z,38.96
2018-03-08T01:49:39.078Z,38.98
2018-03-08T01:50:39.545Z,38.99
2018-03-08T01:51:40.018Z,39.03
2018-03-08T01:52:40.480Z,39.08
2018-03-08T01:53:40.945Z,39.18
2018-03-08T01:54:41.568Z,39.23
2018-03-08T01:55:41.880Z,39.24
2018-03-08T01:56:42.347Z,39.29
2018-03-08T01:57:42.814Z,39.41
2018-03-08T01:58:43.282Z,39.50
2018-03-08T01:59:43.749Z,39.63
2018-03-08T02:00:44.217Z,39.70
2018-03-08T02:01:44.683Z,39.74
2018-03-08T02:02:45.152Z,39.77
2018-03-08T02:03:45.617Z,39.71
2018-03-08T02:04:46.084Z,39.68
2018-03-08T02:05:46.549Z,39.66
2018-03-08T02:06:47.019Z,39.61
2018-03-08T02:07:47.484Z,39.57
2018-03-08T02:08:47.954Z,39.52
2018-03-08T02:09:48.423Z,39.47
2018-03-08T02:10:48.889Z,39.43
2018-03-08T02:11:49.355Z,39.48
2018-03-08T02:12:49.821Z,39.49
2018-03-08T02:13:50.287Z,39.51
2018-03-08T02:14:50.756Z,39.51
2018-03-08T02:15:51.221Z,39.49
2018-03-08T02:16:51.690Z,39.48
2018-03-08T02:17:52.154Z,39.46
2018-03-08T02:18:52.623Z,39.45
2018-03-08T02:19:53.090Z,39.36
2018-03-08T02:20:53.558Z,39.32
2018-03-08T02:21:54.023Z,39.30
2018-03-08T02:22:54.493Z,39.25
2018-03-08T02:23:54.958Z,39.17
2018-03-08T02:24:55.425Z,39.13
2018-03-08T02:25:55.892Z,39.13
2018-03-08T02:26:56.360Z,39.06
2018-03-08T02:27:56.825Z,39.05
2018-03-08T02:28:57.294Z,39.08
2018-03-08T02:29:57.758Z,39.04
2018-03-08T02:30:58.227Z,39.03
2018-03-08T02:31:58.692Z,39.03
2018-03-08T02:32:59.159Z,39.06
2018-03-08T02:33:59.632Z,39.07
2018-03-08T02:35:00.146Z,39.00
2018-03-08T02:36:00.560Z,38.99
2018-03-08T02:37:01.028Z,38.95
2018-03-08T02:38:01.496Z,38.90
2018-03-08T02:39:01.962Z,38.89
2018-03-08T02:40:02.583Z,38.86
2018-03-08T02:41:02.896Z,38.84
2018-03-08T02:42:03.361Z,38.83
2018-03-08T02:43:03.830Z,38.81
2018-03-08T02:44:04.300Z,38.79
2018-03-08T02:45:04.774Z,38.80
2018-03-08T02:46:05.228Z,38.79
2018-03-08T02:47:05.699Z,38.80
2018-03-08T02:48:06.163Z,38.78
2018-03-08T02:49:06.631Z,38.79
2018-03-08T02:50:07.096Z,38.79
2018-03-08T02:51:07.566Z,38.80
2018-03-08T02:52:08.030Z,38.85
2018-03-08T02:53:08.496Z,38.91
2018-03-08T02:54:08.964Z,38.91
2018-03-08T02:55:09.433Z,38.94
2018-03-08T02:56:09.897Z,38.95
2018-03-08T02:57:10.362Z,38.94
2018-03-08T02:58:10.830Z,38.98
2018-03-08T02:59:11.300Z,38.97
2018-03-08T03:00:11.764Z,39.01
2018-03-08T03:01:12.231Z,39.03
2018-03-08T03:02:12.696Z,39.03
2018-03-08T03:03:13.164Z,38.98
2018-03-08T03:04:13.634Z,38.99
2018-03-08T03:05:14.148Z,39.09
2018-03-08T03:06:14.564Z,39.15
2018-03-08T03:07:15.030Z,39.22
2018-03-08T03:08:15.498Z,39.27
2018-03-08T03:09:15.970Z,39.32
2018-03-08T03:10:16.480Z,39.30
2018-03-08T03:11:16.901Z,39.27
2018-03-08T03:12:17.364Z,39.25
2018-03-08T03:13:17.831Z,39.20
2018-03-08T03:14:18.297Z,39.22
2018-03-08T03:15:18.798Z,39.23
2018-03-08T03:16:19.231Z,39.27
2018-03-08T03:17:19.698Z,39.33
2018-03-08T03:18:20.164Z,39.32
2018-03-08T03:19:20.632Z,39.34
2018-03-08T03:20:21.098Z,39.33
2018-03-08T03:21:21.562Z,39.41
2018-03-08T03:22:22.030Z,39.41
2018-03-08T03:23:22.497Z,39.40
2018-03-08T03:24:22.964Z,39.43
2018-03-08T03:25:23.480Z,39.47
2018-03-08T03:26:23.897Z,39.53
2018-03-08T03:27:24.363Z,39.62
2018-03-08T03:28:24.829Z,39.70
2018-03-08T03:29:25.298Z,39.74
2018-03-08T03:30:25.764Z,39.80
2018-03-08T03:31:26.233Z,39.89
2018-03-08T03:32:26.698Z,39.97
2018-03-08T03:33:27.164Z,40.00
2018-03-08T03:34:27.630Z,40.04
2018-03-08T03:35:28.147Z,40.07
2018-03-08T03:36:28.564Z,40.14
2018-03-08T03:37:29.029Z,40.18
2018-03-08T03:38:29.495Z,40.18
2018-03-08T03:39:29.964Z,40.24
2018-03-08T03:40:30.633Z,40.30
2018-03-08T03:41:30.896Z,40.34
2018-03-08T03:42:31.365Z,40.38
2018-03-08T03:43:31.829Z,40.41
2018-03-08T03:44:32.298Z,40.44
2018-03-08T03:45:32.761Z,40.53
2018-03-08T03:46:33.231Z,40.59
2018-03-08T03:47:33.698Z,40.58
2018-03-08T03:48:34.163Z,40.58
2018-03-08T03:49:34.629Z,40.48
2018-03-08T03:50:35.095Z,40.43
2018-03-08T03:51:35.561Z,40.40
2018-03-08T03:52:36.036Z,40.34
2018-03-08T03:53:36.494Z,40.33
2018-03-08T03:54:36.963Z,40.29
2018-03-08T03:55:37.429Z,40.26
2018-03-08T03:56:37.898Z,40.25
2018-03-08T03:57:38.365Z,40.22
2018-03-08T03:58:38.827Z,40.24
2018-03-08T03:59:39.296Z,40.22
2018-03-08T04:00:39.811Z,40.19
2018-03-08T04:01:40.229Z,40.19
2018-03-08T04:02:40.698Z,40.21
2018-03-08T04:03:41.161Z,40.26
2018-03-08T04:04:41.627Z,40.26
2018-03-08T04:05:42.098Z,40.25
2018-03-08T04:06:42.561Z,40.23
2018-03-08T04:07:43.030Z,40.20
2018-03-08T04:08:43.496Z,40.20
2018-03-08T04:09:43.959Z,40.19
2018-03-08T04:10:44.478Z,40.15
2018-03-08T04:11:44.893Z,40.13
2018-03-08T04:12:45.360Z,40.05
2018-03-08T04:13:45.826Z,39.99
2018-03-08T04:14:46.293Z,39.96
2018-03-08T04:15:46.761Z,39.87
2018-03-08T04:16:47.228Z,39.88
2018-03-08T04:17:47.693Z,39.86
2018-03-08T04:18:48.161Z,39.85
2018-03-08T04:19:48.626Z,39.85
2018-03-08T04:20:49.144Z,39.89
2018-03-08T04:21:49.560Z,40.00
2018-03-08T04:22:50.026Z,40.08
2018-03-08T04:23:50.494Z,40.06
2018-03-08T04:24:50.960Z,40.09
2018-03-08T04:25:51.426Z,40.05
2018-03-08T04:26:51.893Z,40.08
2018-03-08T04:27:52.360Z,40.09
2018-03-08T04:28:52.828Z,40.06
2018-03-08T04:29:53.291Z,40.04
2018-03-08T04:30:53.761Z,40.01
2018-03-08T04:31:54.227Z,39.95
2018-03-08T04:32:54.695Z,39.96
2018-03-08T04:33:55.162Z,39.95
2018-03-08T04:34:55.627Z,39.89
2018-03-08T04:35:56.141Z,39.82
2018-03-08T04:36:56.560Z,39.81
2018-03-08T04:37:57.024Z,39.84
2018-03-08T04:38:57.491Z,39.86
2018-03-08T04:39:57.957Z,39.95
2018-03-08T04:40:58.425Z,40.04
2018-03-08T04:41:58.889Z,40.13
2018-03-08T04:42:59.359Z,40.23
2018-03-08T04:43:59.823Z,40.29
2018-03-08T04:45:00.290Z,40.38
2018-03-08T04:46:00.757Z,40.46
2018-03-08T04:47:01.224Z,40.53
2018-03-08T04:48:01.691Z,40.57
2018-03-08T04:49:02.159Z,40.66
2018-03-08T04:50:02.623Z,40.74
2018-03-08T04:51:03.090Z,40.78
2018-03-08T04:52:03.557Z,40.80
2018-03-08T04:53:04.021Z,40.83
2018-03-08T04:54:04.487Z,40.88
2018-03-08T04:55:04.956Z,40.94
2018-03-08T04:56:05.422Z,40.97
2018-03-08T04:57:05.887Z,41.01
2018-03-08T04:58:06.352Z,41.04
2018-03-08T04:59:06.822Z,41.03
2018-03-08T05:00:07.286Z,41.05
2018-03-08T05:01:07.834Z,41.09
2018-03-08T05:02:08.221Z,41.17
2018-03-08T05:03:08.686Z,41.18
2018-03-08T05:04:09.153Z,41.20
2018-03-08T05:05:09.621Z,41.25
2018-03-08T05:06:10.091Z,41.29
2018-03-08T05:07:10.552Z,41.25
2018-03-08T05:08:11.019Z,41.27
2018-03-08T05:09:11.486Z,41.22
2018-03-08T05:10:11.953Z,41.20
2018-03-08T05:11:12.470Z,41.20
2018-03-08T05:12:12.884Z,41.13
2018-03-08T05:13:13.351Z,41.04
2018-03-08T05:14:13.817Z,41.02
2018-03-08T05:15:14.286Z,41.03
2018-03-08T05:16:14.752Z,40.99
2018-03-08T05:17:15.219Z,41.03
2018-03-08T05:18:15.683Z,41.03
2018-03-08T05:19:16.149Z,41.01
2018-03-08T05:20:16.619Z,40.97
2018-03-08T05:21:17.085Z,40.97
2018-03-08T05:22:17.553Z,40.98
2018-03-08T05:23:18.017Z,40.99
2018-03-08T05:24:18.484Z,41.04
2018-03-08T05:25:18.950Z,41.07
2018-03-08T05:26:19.420Z,41.11
2018-03-08T05:27:19.884Z,41.11
2018-03-08T05:28:20.349Z,41.17
2018-03-08T05:29:20.815Z,41.22
2018-03-08T05:30:21.282Z,41.25
2018-03-08T05:31:21.749Z,41.29
2018-03-08T05:32:22.216Z,41.34
2018-03-08T05:33:22.683Z,41.38
2018-03-08T05:34:23.150Z,41.42
2018-03-08T05:35:23.614Z,41.49
2018-03-08T05:36:24.084Z,41.53
2018-03-08T05:37:24.547Z,41.56
2018-03-08T05:38:25.016Z,41.58
2018-03-08T05:39:25.481Z,41.64
2018-03-08T05:40:25.950Z,41.69
2018-03-08T05:41:26.464Z,41.71
2018-03-08T05:42:26.886Z,41.74
2018-03-08T05:43:27.348Z,41.81
2018-03-08T05:44:27.815Z,41.84
2018-03-08T05:45:28.283Z,41.88
2018-03-08T05:46:28.747Z,41.88
2018-03-08T05:47:29.215Z,41.90
2018-03-08T05:48:29.681Z,41.92
2018-03-08T05:49:30.148Z,41.92
2018-03-08T05:50:30.612Z,41.95
2018-03-08T05:51:31.130Z,41.99
2018-03-08T05:52:31.546Z,42.04
2018-03-08T05:53:32.014Z,42.04
2018-03-08T05:54:32.481Z,42.00
2018-03-08T05:55:32.946Z,42.04
2018-03-08T05:56:33.414Z,42.04
2018-03-08T05:57:33.881Z,42.05
2018-03-08T05:58:34.351Z,42.05
2018-03-08T05:59:34.814Z,42.09
2018-03-08T06:00:35.280Z,42.08
2018-03-08T06:01:35.798Z,42.09
2018-03-08T06:02:36.212Z,42.07
2018-03-08T06:03:36.681Z,42.08
2018-03-08T06:04:37.147Z,42.09
2018-03-08T06:05:37.615Z,42.11
2018-03-08T06:06:38.079Z,42.09
2018-03-08T06:07:38.570Z,42.12
2018-03-08T06:08:39.013Z,42.14
2018-03-08T06:09:39.483Z,42.15
2018-03-08T06:10:39.948Z,42.18
2018-03-08T06:11:40.464Z,42.18
2018-03-08T06:12:40.881Z,42.17
2018-03-08T06:13:41.350Z,42.18
2018-03-08T06:14:41.814Z,42.17
2018-03-08T06:15:42.280Z,42.21
2018-03-08T06:16:42.748Z,42.24
2018-03-08T06:17:43.215Z,42.26
2018-03-08T06:18:43.683Z,42.25
2018-03-08T06:19:44.148Z,42.26
2018-03-08T06:20:44.618Z,42.27
2018-03-08T06:21:45.135Z,42.28
2018-03-08T06:22:45.552Z,42.29
2018-03-08T06:23:46.018Z,42.29
2018-03-08T06:24:46.484Z,42.27
2018-03-08T06:25:46.951Z,42.28
2018-03-08T06:26:47.618Z,42.33
2018-03-08T06:27:47.889Z,42.41
2018-03-08T06:28:48.350Z,42.44
2018-03-08T06:29:48.818Z,42.45
2018-03-08T06:30:49.285Z,42.47
2018-03-08T06:31:49.800Z,42.48
2018-03-08T06:32:50.221Z,42.48
2018-03-08T06:33:50.685Z,42.49
2018-03-08T06:34:51.154Z,42.51
2018-03-08T06:35:51.617Z,42.50
2018-03-08T06:36:52.134Z,42.54
2018-03-08T06:37:52.551Z,42.58
2018-03-08T06:38:53.019Z,42.60
2018-03-08T06:39:53.485Z,42.63
2018-03-08T06:40:53.954Z,42.63
2018-03-08T06:41:54.422Z,42.67
2018-03-08T06:42:54.886Z,42.68
2018-03-08T06:43:55.353Z,42.67
2018-03-08T06:44:55.821Z,42.68
2018-03-08T06:45:56.286Z,42.69
2018-03-08T06:46:56.958Z,42.71
2018-03-08T06:47:57.220Z,42.69
2018-03-08T06:48:57.690Z,42.71
2018-03-08T06:49:58.155Z,42.73
2018-03-08T06:50:58.623Z,42.75
2018-03-08T06:51:59.168Z,42.77
2018-03-08T06:52:59.558Z,42.79
2018-03-08T06:54:00.027Z,42.81
2018-03-08T06:55:00.490Z,42.80
2018-03-08T06:56:00.957Z,42.81
2018-03-08T06:57:01.426Z,42.80
2018-03-08T06:58:01.889Z,42.77
2018-03-08T06:59:02.355Z,42.78
2018-03-08T07:00:02.824Z,42.79
2018-03-08T07:01:03.294Z,42.81
2018-03-08T07:02:03.760Z,42.80
2018-03-08T07:03:04.227Z,42.80
2018-03-08T07:04:04.696Z,42.77
2018-03-08T07:05:05.164Z,42.79
2018-03-08T07:06:05.625Z,42.84
2018-03-08T07:07:06.092Z,42.86
2018-03-08T07:08:06.559Z,42.90
2018-03-08T07:09:07.030Z,42.93
2018-03-08T07:10:07.496Z,42.96
2018-03-08T07:11:07.961Z,42.94
2018-03-08T07:12:08.479Z,42.96
2018-03-08T07:13:08.901Z,42.94
2018-03-08T07:14:09.362Z,42.93
2018-03-08T07:15:09.832Z,42.90
2018-03-08T07:16:10.305Z,42.89
2018-03-08T07:17:10.766Z,42.90
2018-03-08T07:18:11.233Z,42.89
2018-03-08T07:19:11.699Z,42.89
2018-03-08T07:20:12.166Z,42.88
2018-03-08T07:21:12.635Z,42.91
2018-03-08T07:22:13.100Z,42.95
2018-03-08T07:23:13.569Z,42.94
2018-03-08T07:24:14.034Z,42.93
2018-03-08T07:25:14.503Z,42.94
2018-03-08T07:26:14.969Z,42.98
2018-03-08T07:27:15.436Z,42.98
2018-03-08T07:28:15.905Z,43.00
2018-03-08T07:29:16.371Z,43.00
2018-03-08T07:30:16.839Z,42.97
2018-03-08T07:31:17.305Z,42.96
2018-03-08T07:32:17.773Z,43.01
2018-03-08T07:33:18.242Z,43.03
2018-03-08T07:34:18.708Z,43.05
2018-03-08T07:35:19.177Z,43.02
2018-03-08T07:36:19.643Z,43.04
2018-03-08T07:37:20.113Z,43.04
2018-03-08T07:38:20.578Z,43.00
2018-03-08T07:39:21.047Z,43.01
2018-03-08T07:40:21.513Z,43.00
2018-03-08T07:41:21.980Z,43.00
2018-03-08T07:42:22.449Z,43.02
2018-03-08T07:43:22.915Z,42.98
2018-03-08T07:44:23.383Z,42.97
2018-03-08T07:45:23.850Z,42.95
2018-03-08T07:46:24.319Z,42.94
2018-03-08T07:47:24.837Z,42.94
2018-03-08T07:48:25.254Z,42.95
2018-03-08T07:49:25.730Z,42.90
2018-03-08T07:50:26.190Z,42.85
2018-03-08T07:51:26.668Z,42.81
2018-03-08T07:52:27.125Z,42.79
2018-03-08T07:53:27.595Z,42.81
2018-03-08T07:54:28.062Z,42.72
2018-03-08T07:55:28.531Z,42.71
2018-03-08T07:56:28.997Z,42.70
2018-03-08T07:57:29.466Z,42.71
2018-03-08T07:58:29.934Z,42.70
2018-03-08T07:59:30.402Z,42.70
2018-03-08T08:00:30.870Z,42.68
2018-03-08T08:01:31.341Z,42.73
2018-03-08T08:02:31.805Z,42.71
2018-03-08T08:03:32.274Z,42.73
2018-03-08T08:04:32.743Z,42.71
2018-03-08T08:05:33.210Z,42.70
2018-03-08T08:06:33.679Z,42.68
2018-03-08T08:07:34.151Z,42.68
2018-03-08T08:08:34.616Z,42.63
2018-03-08T08:09:35.082Z,42.70
2018-03-08T08:10:35.551Z,42.74
2018-03-08T08:11:36.021Z,42.72
2018-03-08T08:12:36.491Z,42.70
2018-03-08T08:13:36.959Z,42.73
2018-03-08T08:14:37.428Z,42.74
2018-03-08T08:15:37.894Z,42.74
2018-03-08T08:16:38.363Z,42.77
2018-03-08T08:17:38.831Z,42.79
2018-03-08T08:18:39.304Z,42.80
2018-03-08T08:19:39.768Z,42.78
2018-03-08T08:20:40.237Z,42.80
2018-03-08T08:21:40.706Z,42.82
2018-03-08T08:22:41.177Z,42.81
2018-03-08T08:23:41.643Z,42.81
2018-03-08T08:24:42.113Z,42.82
2018-03-08T08:25:42.582Z,42.84
2018-03-08T08:26:43.062Z,42.87
2018-03-08T08:27:43.519Z,42.88
2018-03-08T08:28:43.986Z,42.90
2018-03-08T08:29:44.460Z,42.92
2018-03-08T08:30:44.926Z,42.92
2018-03-08T08:31:45.393Z,42.95
2018-03-08T08:32:45.902Z,42.98
2018-03-08T08:33:46.331Z,42.97
2018-03-08T08:34:46.799Z,43.00
2018-03-08T08:35:47.269Z,43.00
2018-03-08T08:36:47.740Z,42.97
2018-03-08T08:37:48.207Z,42.93
2018-03-08T08:38:48.676Z,42.86
2018-03-08T08:39:49.145Z,42.75
2018-03-08T08:40:49.614Z,42.72
2018-03-08T08:41:50.082Z,42.68
2018-03-08T08:42:50.554Z,42.62
2018-03-08T08:43:51.021Z,42.62
2018-03-08T08:44:51.495Z,42.56
2018-03-08T08:45:51.961Z,42.52
2018-03-08T08:46:52.431Z,42.51
2018-03-08T08:47:52.899Z,42.50
2018-03-08T08:48:53.370Z,42.52
2018-03-08T08:49:53.885Z,42.53
2018-03-08T08:50:54.310Z,42.49
2018-03-08T08:51:54.780Z,42.50
2018-03-08T08:52:55.248Z,42.45
2018-03-08T08:53:55.720Z,42.40
2018-03-08T08:54:56.190Z,42.43
2018-03-08T08:55:56.663Z,42.43
2018-03-08T08:56:57.130Z,42.46
2018-03-08T08:57:57.601Z,42.54
2018-03-08T08:58:58.070Z,42.63
2018-03-08T08:59:58.541Z,42.73
2018-03-08T09:00:59.020Z,42.68
2018-03-08T09:01:59.824Z,42.71
2018-03-08T09:02:59.955Z,42.78
2018-03-08T09:04:00.426Z,42.90
2018-03-08T09:05:00.893Z,42.97
2018-03-08T09:06:01.370Z,42.97
2018-03-08T09:07:01.839Z,42.94
2018-03-08T09:08:02.359Z,42.93
2018-03-08T09:09:02.779Z,42.94
2018-03-08T09:10:03.253Z,42.96
2018-03-08T09:11:03.721Z,43.08
2018-03-08T09:12:04.196Z,43.13
2018-03-08T09:13:04.864Z,43.09
2018-03-08T09:14:05.134Z,43.13
2018-03-08T09:15:05.608Z,43.15
2018-03-08T09:16:06.079Z,43.14
2018-03-08T09:17:06.550Z,43.16
2018-03-08T09:18:07.071Z,43.14
2018-03-08T09:19:07.493Z,43.14
2018-03-08T09:20:07.963Z,43.13
2018-03-08T09:21:08.438Z,43.11
2018-03-08T09:22:08.907Z,43.12
2018-03-08T09:23:09.429Z,43.16
2018-03-08T09:24:09.848Z,43.19
2018-03-08T09:25:10.322Z,43.25
2018-03-08T09:26:10.794Z,43.16
2018-03-08T09:27:11.268Z,43.18
2018-03-08T09:28:11.788Z,43.20
2018-03-08T09:29:12.213Z,43.15
2018-03-08T09:30:12.682Z,43.14
2018-03-08T09:31:13.154Z,43.14
2018-03-08T09:32:13.626Z,43.09
2018-03-08T09:33:14.098Z,43.09
2018-03-08T09:34:14.572Z,43.06
2018-03-08T09:35:15.043Z,42.99
2018-03-08T09:36:15.516Z,43.00
2018-03-08T09:37:15.989Z,42.97
2018-03-08T09:38:16.615Z,42.91
2018-03-08T09:39:16.934Z,42.85
2018-03-08T09:40:17.406Z,42.85
2018-03-08T09:41:17.879Z,42.78
2018-03-08T09:42:18.353Z,42.83
2018-03-08T09:43:18.825Z,42.79
2018-03-08T09:44:19.299Z,42.73
2018-03-08T09:45:19.770Z,42.70
2018-03-08T09:46:20.245Z,42.69
2018-03-08T09:47:20.721Z,42.71
2018-03-08T09:48:21.241Z,42.66
2018-03-08T09:49:21.662Z,42.60
2018-03-08T09:50:22.137Z,42.60
2018-03-08T09:51:22.610Z,42.57
2018-03-08T09:52:23.083Z,42.59
2018-03-08T09:53:23.556Z,42.56
2018-03-08T09:54:24.032Z,42.52
2018-03-08T09:55:24.505Z,42.42
2018-03-08T09:56:24.978Z,42.37
2018-03-08T09:57:25.450Z,42.34
2018-03-08T09:58:25.923Z,42.33
2018-03-08T09:59:26.398Z,42.30
2018-03-08T10:00:26.872Z,42.28
2018-03-08T10:01:27.344Z,42.27
2018-03-08T10:02:27.819Z,42.22
2018-03-08T10:03:28.325Z,42.17
2018-03-08T10:04:28.765Z,42.12
2018-03-08T10:05:29.252Z,42.08
2018-03-08T10:06:29.716Z,42.01
2018-03-08T10:07:30.188Z,42.00
2018-03-08T10:08:30.662Z,41.99
2018-03-08T10:09:31.137Z,41.97
2018-03-08T10:10:31.609Z,42.00
2018-03-08T10:11:32.084Z,41.96
2018-03-08T10:12:32.557Z,41.91
2018-03-08T10:13:33.084Z,41.90
2018-03-08T10:14:33.507Z,41.83
2018-03-08T10:15:33.983Z,41.78
2018-03-08T10:16:34.454Z,41.73
2018-03-08T10:17:34.935Z,41.71
2018-03-08T10:18:35.448Z,41.68
2018-03-08T10:19:35.878Z,41.70
2018-03-08T10:20:36.353Z,41.73
2018-03-08T10:21:49.856Z,41.73
2018-03-08T10:22:37.305Z,41.72
2018-03-08T10:23:37.778Z,41.71
2018-03-08T10:24:38.252Z,41.73
2018-03-08T10:25:38.725Z,41.70
2018-03-08T10:26:39.200Z,41.68
2018-03-08T10:27:39.676Z,41.65
2018-03-08T10:28:40.151Z,41.64
2018-03-08T10:29:40.626Z,41.65
2018-03-08T10:30:41.101Z,41.63
2018-03-08T10:31:41.579Z,41.59
2018-03-08T10:32:42.052Z,41.59
2018-03-08T10:33:42.525Z,41.56
2018-03-08T10:34:43.033Z,41.58
2018-03-08T10:35:43.477Z,41.55
2018-03-08T10:36:43.950Z,41.53
2018-03-08T13:00:16.900Z,43.81
2018-03-08T13:01:17.353Z,43.67
2018-03-08T13:02:17.827Z,43.52
2018-03-08T13:03:18.501Z,43.44
2018-03-08T13:04:18.786Z,43.32
2018-03-08T13:05:19.241Z,43.24
2018-03-08T13:06:19.714Z,43.15
2018-03-08T13:07:20.187Z,43.12
2018-03-08T13:08:20.659Z,42.97
2018-03-08T13:09:21.138Z,42.85
2018-03-08T13:10:21.608Z,42.72
2018-03-08T13:11:22.079Z,42.59
2018-03-08T13:12:22.552Z,42.50
2018-03-08T13:13:23.025Z,42.40
2018-03-08T13:14:23.500Z,42.34
2018-03-08T13:15:24.176Z,42.47
2018-03-08T13:16:24.448Z,42.55
2018-03-08T13:17:24.919Z,42.45
2018-03-08T13:18:25.395Z,42.26
2018-03-08T13:19:25.868Z,42.30
2018-03-08T13:20:26.344Z,42.20
2018-03-08T13:21:26.815Z,42.02
2018-03-08T13:22:27.290Z,41.90
2018-03-08T13:23:27.763Z,41.88
2018-03-08T13:24:28.239Z,41.74
2018-03-08T13:25:28.713Z,41.63
2018-03-08T13:26:29.187Z,41.56
2018-03-08T13:27:29.664Z,41.51
2018-03-08T13:28:30.338Z,41.51
2018-03-08T13:29:30.610Z,41.58
2018-03-08T13:30:31.086Z,41.43
2018-03-08T13:31:31.562Z,41.38
2018-03-08T13:32:32.035Z,41.22
2018-03-08T13:33:32.511Z,41.16
2018-03-08T13:34:32.988Z,41.24
2018-03-08T13:35:33.465Z,41.28
2018-03-08T13:36:33.934Z,41.14
2018-03-08T13:37:34.411Z,41.15
2018-03-08T13:38:34.888Z,41.07
2018-03-08T13:39:35.362Z,41.06
2018-03-08T13:40:35.835Z,41.07
2018-03-08T13:41:36.314Z,41.14
2018-03-08T13:42:36.788Z,41.22
2018-03-08T13:43:37.492Z,41.32
2018-03-08T13:44:37.736Z,41.51
2018-03-08T13:45:38.214Z,41.68
2018-03-08T13:46:38.692Z,41.83
2018-03-08T13:47:39.162Z,42.00
2018-03-08T13:48:39.638Z,42.20
2018-03-08T13:49:40.113Z,42.36
2018-03-08T13:50:40.587Z,42.59
2018-03-08T13:51:41.065Z,42.85
2018-03-08T13:52:41.534Z,43.06
2018-03-08T13:53:42.012Z,43.30
2018-03-08T13:54:42.484Z,43.45
2018-03-08T13:55:43.007Z,43.60
2018-03-08T13:56:43.431Z,43.83
2018-03-08T13:57:43.902Z,44.02
2018-03-08T13:58:44.375Z,44.18
2018-03-08T13:59:44.850Z,44.41
2018-03-08T14:00:45.321Z,44.62
2018-03-08T14:01:45.792Z,44.81
2018-03-08T14:02:46.267Z,45.00
2018-03-08T14:03:46.737Z,45.17
2018-03-08T14:04:47.210Z,45.36
2018-03-08T14:05:47.680Z,45.47
2018-03-08T14:06:48.151Z,45.52
2018-03-08T14:07:48.623Z,45.58
2018-03-08T14:08:49.093Z,45.62
2018-03-08T14:09:49.563Z,45.63
2018-03-08T14:10:50.087Z,45.64
2018-03-08T14:11:50.507Z,45.51
2018-03-08T14:12:50.976Z,45.42
2018-03-08T14:13:51.454Z,45.28
2018-03-08T14:14:51.919Z,45.23
2018-03-08T14:15:52.443Z,45.12
2018-03-08T14:16:52.863Z,44.98
2018-03-08T14:17:53.333Z,44.84
2018-03-08T14:18:54.008Z,44.72
2018-03-08T14:19:54.275Z,44.59
2018-03-08T14:20:54.746Z,44.48
2018-03-08T14:21:55.217Z,44.34
2018-03-08T14:22:55.687Z,44.22
2018-03-08T14:23:56.160Z,44.07
2018-03-08T14:24:56.631Z,43.87
2018-03-08T14:25:57.153Z,43.72
2018-03-08T14:26:57.607Z,43.67
2018-03-08T14:27:58.045Z,43.52
2018-03-08T14:28:58.518Z,43.39
2018-03-08T14:29:58.990Z,43.31
2018-03-08T14:30:59.460Z,43.24
2018-03-08T14:31:59.971Z,43.19
2018-03-08T14:33:00.405Z,43.15
2018-03-08T14:34:00.875Z,43.07
2018-03-08T14:35:01.351Z,43.02
2018-03-08T14:36:01.893Z,42.98
2018-03-08T14:37:02.294Z,42.87
2018-03-08T14:38:02.768Z,42.79
2018-03-08T14:39:03.241Z,42.71
2018-03-08T14:40:03.714Z,42.64
2018-03-08T14:41:04.185Z,42.57
2018-03-08T14:42:04.677Z,42.51
2018-03-08T14:43:05.132Z,42.44
2018-03-08T14:44:05.606Z,42.37
2018-03-08T14:45:06.079Z,42.29
2018-03-08T14:46:06.553Z,42.23
2018-03-08T14:47:07.028Z,42.15
2018-03-08T14:48:07.500Z,42.07
2018-03-08T14:49:07.971Z,41.98
2018-03-08T14:50:08.447Z,41.93
2018-03-08T14:51:08.919Z,41.90
2018-03-08T14:52:09.403Z,41.82
2018-03-08T14:53:09.866Z,41.70
2018-03-08T14:54:10.342Z,41.64
2018-03-08T14:55:10.817Z,41.62
2018-03-08T14:56:11.343Z,41.58
2018-03-08T14:57:11.764Z,41.54
2018-03-08T14:58:12.238Z,41.51
2018-03-08T14:59:12.713Z,41.44
2018-03-08T15:00:13.193Z,41.39
2018-03-08T15:01:13.663Z,41.33
2018-03-08T15:02:14.137Z,41.32
2018-03-08T15:03:14.612Z,41.28
2018-03-08T15:04:15.088Z,41.19
2018-03-08T15:05:15.561Z,41.09
2018-03-08T15:06:16.036Z,41.06
2018-03-08T15:07:16.510Z,40.98
2018-03-08T15:08:16.985Z,40.94
2018-03-08T15:09:17.459Z,40.88
2018-03-08T15:10:18.138Z,40.84
2018-03-08T15:11:18.411Z,40.83
2018-03-08T15:12:18.887Z,40.81
2018-03-08T15:13:19.700Z,40.81
2018-03-08T15:14:19.835Z,40.86
2018-03-08T15:15:20.313Z,40.91
2018-03-08T15:16:20.833Z,40.95
2018-03-08T15:17:21.259Z,41.03
2018-03-08T15:18:21.736Z,41.11
2018-03-08T15:19:22.210Z,41.23
2018-03-08T15:20:22.688Z,41.33
2018-03-08T15:21:23.158Z,41.48